createdAt,value
2018-09-02T00:02:06.033Z,10.90
2018-09-02T00:04:36.244Z,11.57
2018-09-02T00:07:05.934Z,11.07
2018-09-02T00:09:35.237Z,12.03
2018-09-02T00:12:04.627Z,13.93
2018-09-02T00:14:34.142Z,11.60
2018-09-02T00:17:03.840Z,11.90
2018-09-02T00:19:33.217Z,11.90
2018-09-02T00:22:03.270Z,12.07
2018-09-02T00:24:32.554Z,11.60
2018-09-02T00:27:02.475Z,11.73
2018-09-02T00:29:31.957Z,12.30
2018-09-02T00:32:01.144Z,11.33
2018-09-02T00:34:30.872Z,11.43
2018-09-02T00:37:00.378Z,12.83
2018-09-02T00:39:29.807Z,12.47
2018-09-02T00:42:00.000Z,12.20
2018-09-02T00:44:29.546Z,11.87
2018-09-02T00:46:59.728Z,11.57
2018-09-02T00:49:28.171Z,12.30
2018-09-02T00:51:56.864Z,12.63
2018-09-02T00:54:25.352Z,12.83
2018-09-02T00:56:53.869Z,12.97
2018-09-02T00:59:22.285Z,12.80
2018-09-02T01:01:50.651Z,13.07
2018-09-02T01:04:19.216Z,13.17
2018-09-02T01:06:47.587Z,12.93
2018-09-02T01:09:15.976Z,12.50
2018-09-02T01:11:44.353Z,12.97
2018-09-02T01:14:12.807Z,11.97
2018-09-02T01:16:42.259Z,12.60
2018-09-02T01:19:10.726Z,12.30
2018-09-02T01:21:39.413Z,12.37
2018-09-02T01:24:07.947Z,12.43
2018-09-02T01:26:37.535Z,11.97
2018-09-02T01:29:05.977Z,11.10
2018-09-02T01:31:34.548Z,11.80
2018-09-02T01:34:03.190Z,11.03
2018-09-02T01:36:31.715Z,12.43
2018-09-02T01:39:00.992Z,12.10
2018-09-02T01:41:29.455Z,11.47
2018-09-02T01:43:57.899Z,11.27
2018-09-02T01:46:26.315Z,11.70
2018-09-02T01:48:54.764Z,11.63
2018-09-02T01:51:23.211Z,12.47
2018-09-02T01:53:51.604Z,12.83
2018-09-02T01:56:20.203Z,11.50
2018-09-02T01:58:48.656Z,11.60
2018-09-02T02:01:17.175Z,11.53
2018-09-02T02:03:46.492Z,11.43
2018-09-02T02:06:14.971Z,11.77
2018-09-02T02:08:43.371Z,12.03
2018-09-02T02:11:11.902Z,11.33
2018-09-02T02:13:40.558Z,11.67
2018-09-02T02:16:08.955Z,12.27
2018-09-02T02:18:37.326Z,11.70
2018-09-02T02:21:05.736Z,11.10
2018-09-02T02:23:35.055Z,11.93
2018-09-02T02:26:03.523Z,11.67
2018-09-02T02:28:31.980Z,12.00
2018-09-02T02:31:01.349Z,10.93
2018-09-02T02:33:29.829Z,10.90
2018-09-02T02:35:58.253Z,10.77
2018-09-02T02:38:27.062Z,10.90
2018-09-02T02:40:55.508Z,11.10
2018-09-02T02:43:24.038Z,11.30
2018-09-02T02:45:52.467Z,11.10
2018-09-02T02:48:21.491Z,11.40
2018-09-02T02:50:50.300Z,11.43
2018-09-02T02:53:18.779Z,10.60
2018-09-02T02:55:47.616Z,10.60
2018-09-02T02:58:16.130Z,10.53
2018-09-02T03:00:44.682Z,11.27
2018-09-02T03:03:13.130Z,10.40
2018-09-02T03:05:41.614Z,9.90
2018-09-02T03:08:11.580Z,9.87
2018-09-02T03:10:40.027Z,9.77
2018-09-02T03:13:09.270Z,9.70
2018-09-02T03:15:37.744Z,8.87
2018-09-02T03:18:06.203Z,9.47
2018-09-02T03:20:34.858Z,9.97
2018-09-02T03:23:04.364Z,8.63
2018-09-02T03:25:32.742Z,8.77
2018-09-02T03:28:01.232Z,8.90
2018-09-02T03:30:29.719Z,8.30
2018-09-02T03:32:58.706Z,8.67
2018-09-02T03:35:27.858Z,8.27
2018-09-02T03:37:56.259Z,8.10
2018-09-02T03:40:24.802Z,7.93
2018-09-02T03:42:53.259Z,7.93
2018-09-02T03:45:21.763Z,8.60
2018-09-02T03:47:50.349Z,9.00
2018-09-02T03:50:19.099Z,8.20
2018-09-02T03:52:47.504Z,8.17
2018-09-02T03:55:16.226Z,7.57
2018-09-02T03:57:44.655Z,7.10
2018-09-02T04:00:13.596Z,7.97
2018-09-02T04:02:42.031Z,7.93
2018-09-02T04:05:10.868Z,7.63
2018-09-02T04:07:39.230Z,8.03
2018-09-02T04:10:07.673Z,8.50
2018-09-02T04:12:36.266Z,8.50
2018-09-02T04:15:04.788Z,8.67
2018-09-02T04:17:33.249Z,8.27
2018-09-02T04:20:01.684Z,8.37
2018-09-02T04:22:30.240Z,8.50
2018-09-02T04:24:58.674Z,8.07
2018-09-02T04:27:27.127Z,8.37
2018-09-02T04:29:55.572Z,8.07
2018-09-02T04:32:24.135Z,8.30
2018-09-02T04:34:52.538Z,8.23
2018-09-02T04:37:20.932Z,7.33
2018-09-02T04:39:49.398Z,8.30
2018-09-02T04:42:17.911Z,7.53
2018-09-02T04:44:46.285Z,7.83
2018-09-02T04:47:15.980Z,7.43
2018-09-02T04:49:44.366Z,7.77
2018-09-02T04:52:12.783Z,8.17
2018-09-02T04:54:41.232Z,7.87
2018-09-02T04:57:09.634Z,8.23
2018-09-02T04:59:38.014Z,8.23
2018-09-02T05:02:07.040Z,7.70
2018-09-02T05:04:35.743Z,8.03
2018-09-02T05:07:04.220Z,7.97
2018-09-02T05:09:32.729Z,7.87
2018-09-02T05:12:01.229Z,8.30
2018-09-02T05:14:29.982Z,7.77
2018-09-02T05:16:58.441Z,7.90
2018-09-02T05:19:27.141Z,8.47
2018-09-02T05:21:55.606Z,8.30
2018-09-02T05:24:24.268Z,8.80
2018-09-02T05:26:52.666Z,8.37
2018-09-02T05:29:21.730Z,8.23
2018-09-02T05:31:50.253Z,8.37
2018-09-02T05:34:18.685Z,7.90
2018-09-02T05:36:47.229Z,8.17
2018-09-02T05:39:15.651Z,7.63
2018-09-02T05:41:44.273Z,8.20
2018-09-02T05:44:12.672Z,8.73
2018-09-02T05:46:42.082Z,7.93
2018-09-02T05:49:10.649Z,8.13
2018-09-02T05:51:39.019Z,8.37
2018-09-02T05:54:08.607Z,9.30
2018-09-02T05:56:37.601Z,9.23
2018-09-02T05:59:06.604Z,8.57
2018-09-02T06:01:35.020Z,8.30
2018-09-02T06:04:03.469Z,8.70
2018-09-02T06:06:31.910Z,8.87
2018-09-02T06:09:00.331Z,8.27
2018-09-02T06:11:28.858Z,9.13
2018-09-02T06:13:58.088Z,8.13
2018-09-02T06:16:26.527Z,8.90
2018-09-02T06:18:55.358Z,8.40
2018-09-02T06:21:23.794Z,8.30
2018-09-02T06:23:52.218Z,7.83
2018-09-02T06:26:20.575Z,8.23
2018-09-02T06:28:48.945Z,8.40
2018-09-02T06:31:17.590Z,7.63
2018-09-02T06:33:45.974Z,7.80
2018-09-02T06:36:14.482Z,8.57
2018-09-02T06:38:43.926Z,7.93
2018-09-02T06:41:12.942Z,9.03
2018-09-02T06:43:41.350Z,9.43
2018-09-02T06:46:09.787Z,8.47
2018-09-02T06:48:39.747Z,8.37
2018-09-02T06:51:08.161Z,9.57
2018-09-02T06:53:37.168Z,8.57
2018-09-02T06:56:06.631Z,8.83
2018-09-02T06:58:36.190Z,8.83
2018-09-02T07:01:05.793Z,9.00
2018-09-02T07:03:35.228Z,9.03
2018-09-02T07:06:05.355Z,9.40
2018-09-02T07:08:34.692Z,9.00
2018-09-02T07:11:03.920Z,9.07
2018-09-02T07:13:33.672Z,9.20
2018-09-02T07:16:03.432Z,9.23
2018-09-02T07:18:32.849Z,9.80
2018-09-02T07:21:02.052Z,8.80
2018-09-02T07:23:31.284Z,8.80
2018-09-02T07:26:00.776Z,9.70
2018-09-02T07:28:30.386Z,9.80
2018-09-02T07:30:59.933Z,9.40
2018-09-02T07:33:29.461Z,10.30
2018-09-02T07:35:58.889Z,9.70
2018-09-02T07:38:29.487Z,9.50
2018-09-02T07:40:59.084Z,9.93
2018-09-02T07:43:28.197Z,9.63
2018-09-02T07:45:59.085Z,9.70
2018-09-02T07:48:28.765Z,10.23
2018-09-02T07:50:58.328Z,10.03
2018-09-02T07:53:27.911Z,10.47
2018-09-02T07:55:58.013Z,9.93
2018-09-02T07:58:27.541Z,10.17
2018-09-02T08:00:57.541Z,10.83
2018-09-02T08:03:27.241Z,11.63
2018-09-02T08:05:56.944Z,11.80
2018-09-02T08:08:26.417Z,11.87
2018-09-02T08:10:54.933Z,12.30
2018-09-02T08:13:24.150Z,13.33
2018-09-02T08:15:52.667Z,11.73
2018-09-02T08:18:21.077Z,11.80
2018-09-02T08:20:49.516Z,12.07
2018-09-02T08:23:17.988Z,11.30
2018-09-02T08:25:46.406Z,11.93
2018-09-02T08:28:14.836Z,11.53
2018-09-02T08:30:44.027Z,10.40
2018-09-02T08:33:12.614Z,11.30
2018-09-02T08:35:41.083Z,11.37
2018-09-02T08:38:09.553Z,12.37
2018-09-02T08:40:37.986Z,12.03
2018-09-02T08:43:06.387Z,11.77
2018-09-02T08:45:35.699Z,13.57
2018-09-02T08:48:04.103Z,12.60
2018-09-02T08:50:32.635Z,11.50
2018-09-02T08:53:01.164Z,11.50
2018-09-02T08:55:36.107Z,11.77
2018-09-02T08:58:04.731Z,12.23
2018-09-02T09:00:33.220Z,12.27
2018-09-02T09:03:01.700Z,12.33
2018-09-02T09:05:30.094Z,11.47
2018-09-02T09:07:58.707Z,11.47
2018-09-02T09:10:27.105Z,11.30
2018-09-02T09:12:55.596Z,11.80
2018-09-02T09:15:24.210Z,11.00
2018-09-02T09:17:52.622Z,12.47
2018-09-02T09:20:21.068Z,10.87
2018-09-02T09:22:49.588Z,11.60
2018-09-02T09:25:17.937Z,11.03
2018-09-02T09:27:46.736Z,11.70
2018-09-02T09:30:15.164Z,10.83
2018-09-02T09:32:43.816Z,12.07
2018-09-02T09:35:12.239Z,11.63
2018-09-02T09:37:40.745Z,11.97
2018-09-02T09:40:09.177Z,10.87
2018-09-02T09:42:37.676Z,11.40
2018-09-02T09:45:06.903Z,11.83
2018-09-02T09:47:35.300Z,12.53
2018-09-02T09:50:03.729Z,11.23
2018-09-02T09:52:32.603Z,11.27
2018-09-02T09:55:01.072Z,11.77
2018-09-02T09:57:29.513Z,12.93
2018-09-02T09:59:57.959Z,13.20
2018-09-02T10:02:26.503Z,13.07
2018-09-02T10:04:55.137Z,12.30
2018-09-02T10:07:23.613Z,13.10
2018-09-02T10:09:52.081Z,13.23
2018-09-02T10:12:20.627Z,13.13
2018-09-02T10:14:49.977Z,12.80
2018-09-02T10:17:18.461Z,12.43
2018-09-02T10:19:47.891Z,13.07
2018-09-02T10:22:16.301Z,12.70
2018-09-02T10:24:44.993Z,14.40
2018-09-02T10:27:13.625Z,15.47
2018-09-02T10:29:42.136Z,12.80
2018-09-02T10:32:10.548Z,12.03
2018-09-02T10:34:39.020Z,11.70
2018-09-02T10:37:07.455Z,12.57
2018-09-02T10:39:35.824Z,11.80
2018-09-02T10:42:06.977Z,12.47
2018-09-02T10:44:35.414Z,12.30
2018-09-02T10:47:04.035Z,13.37
2018-09-02T10:49:32.582Z,12.67
2018-09-02T10:52:00.992Z,12.87
2018-09-02T10:54:29.686Z,12.63
2018-09-02T10:56:58.077Z,12.83
2018-09-02T10:59:26.521Z,12.57
2018-09-02T11:01:54.957Z,12.20
2018-09-02T11:04:23.738Z,12.43
2018-09-02T11:06:52.134Z,11.87
2018-09-02T11:09:20.593Z,11.37
2018-09-02T11:11:49.066Z,11.27
2018-09-02T11:14:17.582Z,11.97
2018-09-02T11:16:46.056Z,12.50
2018-09-02T11:19:14.502Z,11.60
2018-09-02T11:21:43.011Z,11.83
2018-09-02T11:24:11.425Z,11.73
2018-09-02T11:26:39.872Z,11.63
2018-09-02T11:29:08.457Z,11.53
2018-09-02T11:31:37.344Z,11.83
2018-09-02T11:34:06.951Z,11.40
2018-09-02T11:36:36.969Z,11.57
2018-09-02T11:39:07.913Z,11.87
2018-09-02T11:41:36.390Z,11.73
2018-09-02T11:44:08.099Z,11.70
2018-09-02T11:46:36.526Z,12.60
2018-09-02T11:49:05.255Z,12.10
2018-09-02T11:51:34.265Z,13.10
2018-09-02T11:54:02.764Z,12.60
2018-09-02T11:56:31.181Z,13.40
2018-09-02T11:58:59.603Z,13.47
2018-09-02T12:01:28.027Z,12.47
2018-09-02T12:03:56.470Z,12.57
2018-09-02T12:06:24.888Z,11.73
2018-09-02T12:08:53.283Z,12.57
2018-09-02T12:11:21.712Z,12.80
2018-09-02T12:13:50.217Z,13.87
2018-09-02T12:16:18.587Z,14.30
2018-09-02T12:18:47.278Z,13.67
2018-09-02T12:21:15.738Z,13.67
2018-09-02T12:23:44.186Z,13.00
2018-09-02T12:26:12.578Z,12.10
2018-09-02T12:28:41.076Z,13.13
2018-09-02T12:31:09.487Z,13.33
2018-09-02T12:33:37.902Z,13.47
2018-09-02T12:36:07.798Z,12.63
2018-09-02T12:38:36.700Z,12.90
2018-09-02T12:41:05.209Z,13.67
2018-09-02T12:43:33.598Z,13.73
2018-09-02T12:46:02.053Z,13.27
2018-09-02T12:48:30.855Z,13.77
2018-09-02T12:50:59.280Z,14.90
2018-09-02T12:53:27.709Z,14.63
2018-09-02T12:55:56.190Z,14.50
2018-09-02T12:58:24.681Z,13.03
2018-09-02T13:00:53.118Z,13.47
2018-09-02T13:03:21.547Z,13.53
2018-09-02T13:05:50.056Z,14.73
2018-09-02T13:08:18.451Z,15.63
2018-09-02T13:10:46.935Z,14.57
2018-09-02T13:13:15.405Z,14.57
2018-09-02T13:15:43.841Z,14.90
2018-09-02T13:18:12.295Z,15.63
2018-09-02T13:20:40.750Z,16.73
2018-09-02T13:23:09.147Z,15.70
2018-09-02T13:25:37.732Z,17.03
2018-09-02T13:28:06.442Z,16.37
2018-09-02T13:30:34.888Z,16.30
2018-09-02T13:33:03.358Z,16.50
2018-09-02T13:35:32.006Z,17.83
2018-09-02T13:38:00.479Z,17.67
2018-09-02T13:40:28.969Z,16.87
2018-09-02T13:42:57.679Z,17.30
2018-09-02T13:45:26.205Z,17.67
2018-09-02T13:47:54.877Z,17.03
2018-09-02T13:50:23.570Z,18.03
2018-09-02T13:52:53.254Z,18.00
2018-09-02T13:55:22.368Z,19.67
2018-09-02T13:57:50.759Z,18.87
2018-09-02T14:00:19.367Z,18.70
2018-09-02T14:02:47.824Z,17.43
2018-09-02T14:05:16.705Z,19.83
2018-09-02T14:07:45.562Z,21.23
2018-09-02T14:10:13.998Z,21.00
2018-09-02T14:12:43.349Z,18.77
2018-09-02T14:15:11.876Z,21.07
2018-09-02T14:17:40.426Z,21.27
2018-09-02T14:20:08.895Z,19.97
2018-09-02T14:22:37.397Z,18.77
2018-09-02T14:25:06.161Z,19.77
2018-09-02T14:27:34.567Z,20.10
2018-09-02T14:30:03.452Z,20.17
2018-09-02T14:32:33.478Z,21.67
2018-09-02T14:35:01.902Z,20.17
2018-09-02T14:37:30.258Z,21.93
2018-09-02T14:39:58.711Z,21.50
2018-09-02T14:42:27.095Z,22.63
2018-09-02T14:44:55.571Z,22.27
2018-09-02T14:47:24.889Z,22.10
2018-09-02T14:49:53.318Z,22.27
2018-09-02T14:52:21.718Z,22.00
2018-09-02T14:54:50.186Z,22.73
2018-09-02T14:57:18.731Z,23.03
2018-09-02T14:59:47.312Z,21.63
2018-09-02T15:02:15.731Z,21.83
2018-09-02T15:04:44.136Z,21.47
2018-09-02T15:07:12.635Z,21.80
2018-09-02T15:09:41.326Z,21.23
2018-09-02T15:12:09.998Z,23.07
2018-09-02T15:14:38.498Z,21.83
2018-09-02T15:17:07.008Z,22.70
2018-09-02T15:19:36.062Z,21.93
2018-09-02T15:22:04.504Z,21.93
2018-09-02T15:24:33.125Z,21.87
2018-09-02T15:27:02.941Z,21.47
2018-09-02T15:29:33.362Z,22.23
2018-09-02T15:32:01.904Z,23.00
2018-09-02T15:34:30.335Z,23.53
2018-09-02T15:36:58.835Z,22.43
2018-09-02T15:39:27.391Z,23.23
2018-09-02T15:41:55.750Z,21.43
2018-09-02T15:44:24.554Z,22.43
2018-09-02T15:46:52.936Z,20.70
2018-09-02T15:49:26.943Z,21.90
2018-09-02T15:51:55.426Z,22.37
2018-09-02T15:54:24.118Z,23.30
2018-09-02T15:56:54.503Z,23.77
2018-09-02T15:59:23.331Z,21.30
2018-09-02T16:01:51.792Z,22.53
2018-09-02T16:04:25.312Z,22.13
2018-09-02T16:06:55.424Z,21.50
2018-09-02T16:09:25.355Z,23.00
2018-09-02T16:12:01.105Z,21.57
2018-09-02T16:14:31.364Z,22.27
2018-09-02T16:17:10.723Z,21.80
2018-09-02T16:19:40.799Z,21.70
2018-09-02T16:22:11.009Z,22.97
2018-09-02T16:24:41.473Z,22.53
2018-09-02T16:27:11.865Z,21.67
2018-09-02T16:29:42.125Z,21.47
2018-09-02T16:32:14.072Z,22.33
2018-09-02T16:34:45.769Z,21.47
2018-09-02T16:37:20.430Z,21.47
2018-09-02T16:39:51.360Z,21.03
2018-09-02T16:42:22.301Z,23.30
2018-09-02T16:44:52.575Z,21.73
2018-09-02T16:47:21.132Z,21.17
2018-09-02T16:49:52.457Z,22.80
2018-09-02T16:52:23.470Z,23.17
2018-09-02T16:54:51.896Z,21.50
2018-09-02T16:57:20.761Z,22.20
2018-09-02T16:59:49.353Z,21.27
2018-09-02T17:02:17.775Z,22.43
2018-09-02T17:04:48.691Z,22.27
2018-09-02T17:07:17.282Z,22.53
2018-09-02T17:09:45.859Z,22.80
2018-09-02T17:12:14.330Z,23.03
2018-09-02T17:14:42.814Z,23.13
2018-09-02T17:17:11.235Z,23.53
2018-09-02T17:19:42.497Z,22.60
2018-09-02T17:22:11.045Z,22.73
2018-09-02T17:24:39.598Z,23.30
2018-09-02T17:27:08.022Z,23.87
2018-09-02T17:29:36.434Z,23.47
2018-09-02T17:32:09.473Z,23.37
2018-09-02T17:34:37.951Z,24.07
2018-09-02T17:37:06.512Z,22.10
2018-09-02T17:39:34.909Z,24.07
2018-09-02T17:42:03.394Z,22.43
2018-09-02T17:44:31.879Z,25.00
2018-09-02T17:47:00.309Z,24.93
2018-09-02T17:49:28.724Z,25.67
2018-09-02T17:51:58.220Z,25.47
2018-09-02T17:54:26.656Z,25.63
2018-09-02T17:56:55.289Z,25.50
2018-09-02T17:59:23.645Z,25.70
2018-09-02T18:01:52.850Z,25.43
2018-09-02T18:04:21.262Z,24.73
2018-09-02T18:06:50.705Z,25.60
2018-09-02T18:09:19.177Z,25.53
2018-09-02T18:11:47.612Z,26.80
2018-09-02T18:14:16.019Z,27.40
2018-09-02T18:16:44.512Z,25.40
2018-09-02T18:19:13.056Z,25.30
2018-09-02T18:21:41.585Z,26.20
2018-09-02T18:24:10.227Z,25.90
2018-09-02T18:26:38.685Z,26.27
2018-09-02T18:29:07.492Z,26.13
2018-09-02T18:31:36.076Z,27.23
2018-09-02T18:34:04.511Z,26.17
2018-09-02T18:36:33.708Z,27.10
2018-09-02T18:39:02.208Z,26.20
2018-09-02T18:41:30.866Z,25.67
2018-09-02T18:43:59.333Z,26.60
2018-09-02T18:46:27.767Z,25.97
2018-09-02T18:48:56.240Z,27.30
2018-09-02T18:51:24.698Z,27.50
2018-09-02T18:53:53.343Z,26.73
2018-09-02T18:56:21.807Z,26.07
2018-09-02T18:58:50.399Z,26.37
2018-09-02T19:01:18.926Z,27.37
2018-09-02T19:03:47.323Z,26.17
2018-09-02T19:06:15.785Z,27.33
2018-09-02T19:08:44.976Z,28.17
2018-09-02T19:11:13.380Z,26.73
2018-09-02T19:13:41.803Z,25.83
2018-09-02T19:16:10.222Z,26.73
2018-09-02T19:18:38.623Z,26.63
2018-09-02T19:21:07.247Z,26.80
2018-09-02T19:23:35.741Z,26.57
2018-09-02T19:26:04.071Z,26.27
2018-09-02T19:28:32.603Z,27.33
2018-09-02T19:31:01.090Z,26.43
2018-09-02T19:33:29.649Z,27.67
2018-09-02T19:35:58.099Z,27.17
2018-09-02T19:38:26.537Z,25.70
2018-09-02T19:40:54.933Z,28.50
2018-09-02T19:43:23.352Z,27.07
2018-09-02T19:45:51.772Z,27.90
2018-09-02T19:48:21.160Z,28.93
2018-09-02T19:50:49.575Z,27.83
2018-09-02T19:53:18.051Z,27.60
2018-09-02T19:55:46.515Z,27.93
2018-09-02T19:58:15.744Z,28.77
2018-09-02T20:00:44.218Z,28.63
2018-09-02T20:03:12.711Z,28.30
2018-09-02T20:05:41.413Z,30.40
2018-09-02T20:08:09.778Z,30.00
2018-09-02T20:10:38.201Z,29.03
2018-09-02T20:13:06.607Z,29.00
2018-09-02T20:15:35.139Z,29.90
2018-09-02T20:18:03.619Z,31.93
2018-09-02T20:20:32.066Z,30.77
2018-09-02T20:23:00.610Z,30.73
2018-09-02T20:25:29.738Z,29.73
2018-09-02T20:27:58.138Z,31.03
2018-09-02T20:30:26.565Z,32.53
2018-09-02T20:32:54.959Z,32.23
2018-09-02T20:35:23.403Z,31.07
2018-09-02T20:37:51.854Z,31.20
2018-09-02T20:40:20.333Z,33.33
2018-09-02T20:42:48.854Z,32.60
2018-09-02T20:45:17.283Z,33.00
2018-09-02T20:47:45.673Z,30.83
2018-09-02T20:50:14.103Z,30.90
2018-09-02T20:52:42.899Z,32.47
2018-09-02T20:55:11.307Z,32.17
2018-09-02T20:57:39.758Z,35.20
2018-09-02T21:00:08.242Z,32.60
2018-09-02T21:02:36.783Z,35.60
2018-09-02T21:05:05.335Z,33.20
2018-09-02T21:07:33.750Z,32.80
2018-09-02T21:10:02.209Z,32.60
2018-09-02T21:12:30.713Z,33.77
2018-09-02T21:14:59.155Z,32.10
2018-09-02T21:17:27.736Z,34.73
2018-09-02T21:19:56.860Z,34.57
2018-09-02T21:22:25.317Z,36.83
2018-09-02T21:24:54.895Z,36.17
2018-09-02T21:27:23.594Z,34.97
2018-09-02T21:29:52.103Z,34.10
2018-09-02T21:32:20.638Z,36.53
2018-09-02T21:34:49.595Z,34.37
2018-09-02T21:37:18.532Z,35.23
2018-09-02T21:39:47.026Z,35.63
2018-09-02T21:42:15.515Z,35.53
2018-09-02T21:44:43.949Z,36.13
2018-09-02T21:47:12.392Z,36.80
2018-09-02T21:49:41.516Z,35.63
2018-09-02T21:52:09.961Z,34.13
2018-09-02T21:54:38.394Z,37.37
2018-09-02T21:57:06.823Z,37.37
2018-09-02T21:59:36.635Z,35.50
2018-09-02T22:02:05.222Z,37.87
2018-09-02T22:04:33.716Z,35.07
2018-09-02T22:07:02.122Z,36.20
2018-09-02T22:09:30.506Z,35.87
2018-09-02T22:11:58.850Z,35.70
2018-09-02T22:14:27.540Z,34.87
2018-09-02T22:16:55.965Z,34.70
2018-09-02T22:19:24.898Z,36.47
2018-09-02T22:21:53.376Z,35.17
2018-09-02T22:24:21.832Z,31.63
2018-09-02T22:26:50.630Z,33.07
2018-09-02T22:29:19.122Z,31.87
2018-09-02T22:31:48.179Z,33.73
2018-09-02T22:34:16.526Z,33.53
2018-09-02T22:36:44.932Z,32.30
2018-09-02T22:39:13.349Z,33.43
2018-09-02T22:41:41.941Z,34.53
2018-09-02T22:44:10.474Z,36.73
2018-09-02T22:46:38.875Z,35.77
2018-09-02T22:49:07.353Z,34.40
2018-09-02T22:51:35.843Z,35.50
2018-09-02T22:54:05.037Z,36.67
2018-09-02T22:56:33.520Z,36.30
2018-09-02T22:59:02.083Z,37.57
2018-09-02T23:01:30.637Z,36.07
2018-09-02T23:03:59.052Z,35.80
2018-09-02T23:06:27.711Z,36.27
2018-09-02T23:08:56.083Z,37.20
2018-09-02T23:11:24.664Z,36.50
2018-09-02T23:13:53.069Z,35.60
2018-09-02T23:16:21.593Z,35.73
2018-09-02T23:18:50.289Z,37.13
2018-09-02T23:21:18.869Z,34.50
2018-09-02T23:23:48.312Z,36.03
2018-09-02T23:26:16.710Z,35.50
2018-09-02T23:28:45.115Z,37.47
2018-09-02T23:31:14.516Z,33.80
2018-09-02T23:33:43.040Z,36.70
2018-09-02T23:36:11.608Z,35.07
2018-09-02T23:38:40.000Z,35.63
2018-09-02T23:41:08.431Z,32.50
2018-09-02T23:43:37.055Z,34.03
2018-09-02T23:46:06.668Z,36.13
2018-09-02T23:48:35.099Z,33.77
2018-09-02T23:51:03.765Z,34.27
2018-09-02T23:53:32.311Z,34.73
2018-09-02T23:56:01.739Z,34.40
2018-09-02T23:58:31.103Z,33.27
